sensor_id;sensor_type;location;lat;lon;timestamp;P1;durP1;ratioP1;P2;durP2;ratioP2
50267;SDS011;36153;50.960;6.220;2022-12-18T00:02:51;19.23;;;6.38;;
50267;SDS011;36153;50.960;6.220;2022-12-18T00:05:52;18.35;;;7.38;;
50267;SDS011;36153;50.960;6.220;2022-12-18T00:08:53;12.02;;;5.22;;
50267;SDS011;36153;50.960;6.220;2022-12-18T00:11:54;15.10;;;6.40;;
50267;SDS011;36153;50.960;6.220;2022-12-18T00:14:55;19.08;;;7.30;;
50267;SDS011;36153;50.960;6.220;2022-12-18T00:17:55;17.92;;;7.20;;
50267;SDS011;36153;50.960;6.220;2022-12-18T00:20:58;21.67;;;6.45;;
50267;SDS011;36153;50.960;6.220;2022-12-18T00:24:00;14.85;;;6.57;;
50267;SDS011;36153;50.960;6.220;2022-12-18T00:27:01;22.13;;;5.97;;
50267;SDS011;36153;50.960;6.220;2022-12-18T00:30:02;16.92;;;5.97;;
50267;SDS011;36153;50.960;6.220;2022-12-18T00:33:03;15.38;;;6.22;;
50267;SDS011;36153;50.960;6.220;2022-12-18T00:36:03;12.40;;;6.03;;
50267;SDS011;36153;50.960;6.220;2022-12-18T00:39:06;13.93;;;5.30;;
50267;SDS011;36153;50.960;6.220;2022-12-18T00:42:07;14.90;;;6.45;;
50267;SDS011;36153;50.960;6.220;2022-12-18T00:45:31;12.60;;;5.25;;
50267;SDS011;36153;50.960;6.220;2022-12-18T00:48:32;22.75;;;6.50;;
50267;SDS011;36153;50.960;6.220;2022-12-18T00:51:32;16.08;;;5.88;;
50267;SDS011;36153;50.960;6.220;2022-12-18T00:54:33;14.27;;;6.35;;
50267;SDS011;36153;50.960;6.220;2022-12-18T00:57:33;13.18;;;4.35;;
50267;SDS011;36153;50.960;6.220;2022-12-18T01:00:33;17.48;;;5.55;;
50267;SDS011;36153;50.960;6.220;2022-12-18T01:03:34;27.48;;;6.15;;
50267;SDS011;36153;50.960;6.220;2022-12-18T01:06:34;29.30;;;6.05;;
50267;SDS011;36153;50.960;6.220;2022-12-18T01:09:35;15.98;;;5.57;;
50267;SDS011;36153;50.960;6.220;2022-12-18T01:12:35;22.95;;;6.10;;
50267;SDS011;36153;50.960;6.220;2022-12-18T01:15:35;14.10;;;5.47;;
50267;SDS011;36153;50.960;6.220;2022-12-18T01:18:36;15.20;;;6.57;;
50267;SDS011;36153;50.960;6.220;2022-12-18T01:21:36;13.40;;;5.60;;
50267;SDS011;36153;50.960;6.220;2022-12-18T01:24:37;10.38;;;5.07;;
50267;SDS011;36153;50.960;6.220;2022-12-18T01:27:37;15.80;;;4.88;;
50267;SDS011;36153;50.960;6.220;2022-12-18T01:30:37;12.82;;;6.00;;
50267;SDS011;36153;50.960;6.220;2022-12-18T01:33:38;12.98;;;5.53;;
50267;SDS011;36153;50.960;6.220;2022-12-18T01:36:38;15.45;;;6.78;;
50267;SDS011;36153;50.960;6.220;2022-12-18T01:39:41;18.10;;;5.75;;
50267;SDS011;36153;50.960;6.220;2022-12-18T01:42:42;17.60;;;5.82;;
50267;SDS011;36153;50.960;6.220;2022-12-18T01:45:42;15.23;;;5.88;;
50267;SDS011;36153;50.960;6.220;2022-12-18T01:48:43;19.38;;;5.05;;
50267;SDS011;36153;50.960;6.220;2022-12-18T01:51:46;19.48;;;6.15;;
50267;SDS011;36153;50.960;6.220;2022-12-18T01:54:47;8.38;;;4.72;;
50267;SDS011;36153;50.960;6.220;2022-12-18T01:57:54;17.98;;;6.22;;
50267;SDS011;36153;50.960;6.220;2022-12-18T02:00:57;12.38;;;4.80;;
50267;SDS011;36153;50.960;6.220;2022-12-18T02:04:14;21.38;;;6.60;;
50267;SDS011;36153;50.960;6.220;2022-12-18T02:11:35;13.50;;;5.70;;
50267;SDS011;36153;50.960;6.220;2022-12-18T02:17:48;9.48;;;3.63;;
50267;SDS011;36153;50.960;6.220;2022-12-18T02:20:56;12.75;;;4.75;;
50267;SDS011;36153;50.960;6.220;2022-12-18T02:24:14;15.50;;;4.97;;
50267;SDS011;36153;50.960;6.220;2022-12-18T02:27:16;10.90;;;4.45;;
50267;SDS011;36153;50.960;6.220;2022-12-18T02:30:17;13.15;;;4.97;;
50267;SDS011;36153;50.960;6.220;2022-12-18T02:33:19;13.15;;;4.85;;
50267;SDS011;36153;50.960;6.220;2022-12-18T02:36:21;14.25;;;5.45;;
50267;SDS011;36153;50.960;6.220;2022-12-18T02:39:25;15.00;;;5.10;;
50267;SDS011;36153;50.960;6.220;2022-12-18T02:42:28;10.52;;;5.47;;
50267;SDS011;36153;50.960;6.220;2022-12-18T02:45:29;11.82;;;5.53;;
50267;SDS011;36153;50.960;6.220;2022-12-18T02:48:30;12.60;;;5.30;;
50267;SDS011;36153;50.960;6.220;2022-12-18T02:51:41;13.10;;;4.53;;
50267;SDS011;36153;50.960;6.220;2022-12-18T03:05:30;12.50;;;4.93;;
50267;SDS011;36153;50.960;6.220;2022-12-18T03:08:35;20.75;;;6.70;;
50267;SDS011;36153;50.960;6.220;2022-12-18T03:11:39;12.75;;;4.68;;
50267;SDS011;36153;50.960;6.220;2022-12-18T03:15:10;26.38;;;5.40;;
50267;SDS011;36153;50.960;6.220;2022-12-18T03:18:18;18.08;;;6.60;;
50267;SDS011;36153;50.960;6.220;2022-12-18T03:21:25;17.70;;;5.80;;
50267;SDS011;36153;50.960;6.220;2022-12-18T03:24:32;15.02;;;4.90;;
50267;SDS011;36153;50.960;6.220;2022-12-18T03:27:33;11.80;;;4.95;;
50267;SDS011;36153;50.960;6.220;2022-12-18T03:30:38;12.05;;;5.40;;
50267;SDS011;36153;50.960;6.220;2022-12-18T03:33:43;16.05;;;4.72;;
50267;SDS011;36153;50.960;6.220;2022-12-18T03:36:47;14.07;;;5.30;;
50267;SDS011;36153;50.960;6.220;2022-12-18T03:39:47;20.60;;;4.85;;
50267;SDS011;36153;50.960;6.220;2022-12-18T03:45:52;10.80;;;4.45;;
50267;SDS011;36153;50.960;6.220;2022-12-18T03:52:09;13.25;;;4.93;;
50267;SDS011;36153;50.960;6.220;2022-12-18T03:55:13;12.07;;;4.75;;
50267;SDS011;36153;50.960;6.220;2022-12-18T03:58:15;11.13;;;4.80;;
50267;SDS011;36153;50.960;6.220;2022-12-18T04:01:20;10.85;;;5.22;;
50267;SDS011;36153;50.960;6.220;2022-12-18T04:04:25;9.60;;;5.20;;
50267;SDS011;36153;50.960;6.220;2022-12-18T04:07:28;15.27;;;6.13;;
50267;SDS011;36153;50.960;6.220;2022-12-18T04:10:29;14.80;;;6.20;;
50267;SDS011;36153;50.960;6.220;2022-12-18T04:13:32;12.20;;;4.93;;
50267;SDS011;36153;50.960;6.220;2022-12-18T04:16:35;10.60;;;4.63;;
50267;SDS011;36153;50.960;6.220;2022-12-18T04:19:35;12.98;;;6.10;;
50267;SDS011;36153;50.960;6.220;2022-12-18T04:22:35;17.52;;;5.95;;
50267;SDS011;36153;50.960;6.220;2022-12-18T04:25:36;20.92;;;6.38;;
50267;SDS011;36153;50.960;6.220;2022-12-18T04:28:36;12.32;;;5.63;;
50267;SDS011;36153;50.960;6.220;2022-12-18T04:31:36;12.63;;;6.30;;
50267;SDS011;36153;50.960;6.220;2022-12-18T04:34:37;9.82;;;4.40;;
50267;SDS011;36153;50.960;6.220;2022-12-18T04:37:37;8.35;;;4.15;;
50267;SDS011;36153;50.960;6.220;2022-12-18T04:40:37;13.35;;;5.63;;
50267;SDS011;36153;50.960;6.220;2022-12-18T04:43:38;13.40;;;5.60;;
50267;SDS011;36153;50.960;6.220;2022-12-18T04:46:38;16.05;;;5.85;;
50267;SDS011;36153;50.960;6.220;2022-12-18T04:49:39;14.35;;;6.35;;
50267;SDS011;36153;50.960;6.220;2022-12-18T04:52:39;18.98;;;6.32;;
50267;SDS011;36153;50.960;6.220;2022-12-18T04:55:39;16.15;;;6.00;;
50267;SDS011;36153;50.960;6.220;2022-12-18T04:58:41;15.82;;;5.97;;
50267;SDS011;36153;50.960;6.220;2022-12-18T05:01:43;14.75;;;5.35;;
50267;SDS011;36153;50.960;6.220;2022-12-18T05:04:43;15.45;;;6.50;;
50267;SDS011;36153;50.960;6.220;2022-12-18T05:07:43;14.88;;;5.88;;
50267;SDS011;36153;50.960;6.220;2022-12-18T05:10:44;13.73;;;5.90;;
50267;SDS011;36153;50.960;6.220;2022-12-18T05:13:44;13.48;;;5.88;;
50267;SDS011;36153;50.960;6.220;2022-12-18T05:16:45;21.25;;;6.65;;
50267;SDS011;36153;50.960;6.220;2022-12-18T05:19:45;19.50;;;6.45;;
50267;SDS011;36153;50.960;6.220;2022-12-18T05:22:46;18.25;;;6.00;;
50267;SDS011;36153;50.960;6.220;2022-12-18T05:25:50;17.27;;;5.85;;
50267;SDS011;36153;50.960;6.220;2022-12-18T05:28:54;13.73;;;5.93;;
50267;SDS011;36153;50.960;6.220;2022-12-18T05:31:55;11.32;;;5.97;;
50267;SDS011;36153;50.960;6.220;2022-12-18T05:34:56;12.77;;;5.25;;
50267;SDS011;36153;50.960;6.220;2022-12-18T05:37:57;12.50;;;6.07;;
50267;SDS011;36153;50.960;6.220;2022-12-18T05:40:57;16.90;;;6.13;;
50267;SDS011;36153;50.960;6.220;2022-12-18T05:43:58;16.25;;;5.53;;
50267;SDS011;36153;50.960;6.220;2022-12-18T05:46:59;12.02;;;5.00;;
50267;SDS011;36153;50.960;6.220;2022-12-18T05:49:59;14.15;;;5.90;;
50267;SDS011;36153;50.960;6.220;2022-12-18T05:52:59;20.40;;;5.45;;
50267;SDS011;36153;50.960;6.220;2022-12-18T05:56:00;20.83;;;7.18;;
50267;SDS011;36153;50.960;6.220;2022-12-18T05:59:02;16.35;;;6.43;;
50267;SDS011;36153;50.960;6.220;2022-12-18T06:02:03;14.60;;;5.30;;
50267;SDS011;36153;50.960;6.220;2022-12-18T06:05:03;16.27;;;5.97;;
50267;SDS011;36153;50.960;6.220;2022-12-18T06:08:04;19.63;;;6.18;;
50267;SDS011;36153;50.960;6.220;2022-12-18T06:11:05;15.15;;;6.70;;
50267;SDS011;36153;50.960;6.220;2022-12-18T06:14:06;17.08;;;6.28;;
50267;SDS011;36153;50.960;6.220;2022-12-18T06:17:06;14.63;;;6.60;;
50267;SDS011;36153;50.960;6.220;2022-12-18T06:20:07;20.70;;;7.32;;
50267;SDS011;36153;50.960;6.220;2022-12-18T06:23:08;20.73;;;9.40;;
50267;SDS011;36153;50.960;6.220;2022-12-18T06:26:11;26.27;;;7.82;;
50267;SDS011;36153;50.960;6.220;2022-12-18T06:29:12;20.23;;;8.25;;
50267;SDS011;36153;50.960;6.220;2022-12-18T06:32:12;24.38;;;8.82;;
50267;SDS011;36153;50.960;6.220;2022-12-18T06:35:12;12.77;;;5.43;;
50267;SDS011;36153;50.960;6.220;2022-12-18T06:38:13;16.38;;;5.75;;
50267;SDS011;36153;50.960;6.220;2022-12-18T06:41:14;18.75;;;8.05;;
50267;SDS011;36153;50.960;6.220;2022-12-18T06:44:17;11.13;;;5.07;;
50267;SDS011;36153;50.960;6.220;2022-12-18T06:47:17;11.48;;;5.68;;
50267;SDS011;36153;50.960;6.220;2022-12-18T06:50:18;22.63;;;6.57;;
50267;SDS011;36153;50.960;6.220;2022-12-18T06:53:18;14.75;;;6.32;;
50267;SDS011;36153;50.960;6.220;2022-12-18T06:56:19;17.20;;;5.85;;
50267;SDS011;36153;50.960;6.220;2022-12-18T06:59:19;22.60;;;6.43;;
50267;SDS011;36153;50.960;6.220;2022-12-18T07:02:19;21.83;;;7.40;;
50267;SDS011;36153;50.960;6.220;2022-12-18T07:05:20;16.48;;;6.60;;
50267;SDS011;36153;50.960;6.220;2022-12-18T07:08:20;15.73;;;7.10;;
50267;SDS011;36153;50.960;6.220;2022-12-18T07:11:21;19.08;;;7.50;;
50267;SDS011;36153;50.960;6.220;2022-12-18T07:14:21;18.80;;;6.50;;
50267;SDS011;36153;50.960;6.220;2022-12-18T07:17:21;15.98;;;6.13;;
50267;SDS011;36153;50.960;6.220;2022-12-18T07:20:22;17.45;;;6.20;;
50267;SDS011;36153;50.960;6.220;2022-12-18T07:23:22;14.93;;;6.15;;
50267;SDS011;36153;50.960;6.220;2022-12-18T07:26:22;18.40;;;5.32;;
50267;SDS011;36153;50.960;6.220;2022-12-18T07:29:23;13.63;;;6.18;;
50267;SDS011;36153;50.960;6.220;2022-12-18T07:32:24;15.40;;;5.97;;
50267;SDS011;36153;50.960;6.220;2022-12-18T07:35:24;21.05;;;7.30;;
50267;SDS011;36153;50.960;6.220;2022-12-18T07:38:24;20.23;;;6.78;;
50267;SDS011;36153;50.960;6.220;2022-12-18T07:41:25;19.88;;;6.03;;
50267;SDS011;36153;50.960;6.220;2022-12-18T07:44:25;18.17;;;7.65;;
50267;SDS011;36153;50.960;6.220;2022-12-18T07:47:25;18.08;;;6.30;;
50267;SDS011;36153;50.960;6.220;2022-12-18T07:50:26;13.00;;;6.10;;
50267;SDS011;36153;50.960;6.220;2022-12-18T07:53:27;16.83;;;5.88;;
50267;SDS011;36153;50.960;6.220;2022-12-18T07:56:27;17.05;;;7.10;;
50267;SDS011;36153;50.960;6.220;2022-12-18T07:59:27;16.33;;;7.18;;
50267;SDS011;36153;50.960;6.220;2022-12-18T08:02:30;20.10;;;7.05;;
50267;SDS011;36153;50.960;6.220;2022-12-18T08:05:30;25.30;;;7.82;;
50267;SDS011;36153;50.960;6.220;2022-12-18T08:08:31;17.60;;;6.43;;
50267;SDS011;36153;50.960;6.220;2022-12-18T08:11:31;20.20;;;6.70;;
50267;SDS011;36153;50.960;6.220;2022-12-18T08:14:31;26.05;;;8.27;;
50267;SDS011;36153;50.960;6.220;2022-12-18T08:17:32;12.45;;;6.28;;
50267;SDS011;36153;50.960;6.220;2022-12-18T08:20:32;22.77;;;8.07;;
50267;SDS011;36153;50.960;6.220;2022-12-18T08:23:32;19.33;;;6.68;;
50267;SDS011;36153;50.960;6.220;2022-12-18T08:26:33;19.52;;;7.28;;
50267;SDS011;36153;50.960;6.220;2022-12-18T08:29:33;18.20;;;7.70;;
50267;SDS011;36153;50.960;6.220;2022-12-18T08:32:33;28.65;;;7.80;;
50267;SDS011;36153;50.960;6.220;2022-12-18T08:35:34;23.25;;;8.18;;
50267;SDS011;36153;50.960;6.220;2022-12-18T08:38:36;22.98;;;8.40;;
50267;SDS011;36153;50.960;6.220;2022-12-18T08:41:37;21.75;;;8.57;;
50267;SDS011;36153;50.960;6.220;2022-12-18T08:44:37;17.17;;;6.53;;
50267;SDS011;36153;50.960;6.220;2022-12-18T08:47:38;20.83;;;7.43;;
50267;SDS011;36153;50.960;6.220;2022-12-18T08:50:38;20.15;;;7.70;;
50267;SDS011;36153;50.960;6.220;2022-12-18T08:53:38;19.05;;;7.95;;
50267;SDS011;36153;50.960;6.220;2022-12-18T08:56:39;19.02;;;7.75;;
50267;SDS011;36153;50.960;6.220;2022-12-18T08:59:39;17.45;;;7.38;;
50267;SDS011;36153;50.960;6.220;2022-12-18T09:02:40;17.30;;;6.55;;
50267;SDS011;36153;50.960;6.220;2022-12-18T09:05:40;18.77;;;7.63;;
50267;SDS011;36153;50.960;6.220;2022-12-18T09:08:41;20.63;;;8.02;;
50267;SDS011;36153;50.960;6.220;2022-12-18T09:11:42;25.23;;;7.80;;
50267;SDS011;36153;50.960;6.220;2022-12-18T09:14:42;18.98;;;6.78;;
50267;SDS011;36153;50.960;6.220;2022-12-18T09:17:43;20.63;;;8.32;;
50267;SDS011;36153;50.960;6.220;2022-12-18T09:20:43;19.48;;;7.53;;
50267;SDS011;36153;50.960;6.220;2022-12-18T09:23:48;21.95;;;7.55;;
50267;SDS011;36153;50.960;6.220;2022-12-18T09:26:52;20.48;;;8.15;;
50267;SDS011;36153;50.960;6.220;2022-12-18T09:29:54;19.80;;;7.63;;
50267;SDS011;36153;50.960;6.220;2022-12-18T09:32:55;19.33;;;7.80;;
50267;SDS011;36153;50.960;6.220;2022-12-18T09:35:56;16.98;;;6.30;;
50267;SDS011;36153;50.960;6.220;2022-12-18T09:38:56;18.17;;;7.35;;
50267;SDS011;36153;50.960;6.220;2022-12-18T09:41:57;15.77;;;7.70;;
50267;SDS011;36153;50.960;6.220;2022-12-18T09:44:58;18.85;;;7.35;;
50267;SDS011;36153;50.960;6.220;2022-12-18T09:47:59;21.52;;;8.00;;
50267;SDS011;36153;50.960;6.220;2022-12-18T09:51:02;21.75;;;7.10;;
50267;SDS011;36153;50.960;6.220;2022-12-18T09:54:07;17.27;;;8.02;;
50267;SDS011;36153;50.960;6.220;2022-12-18T10:00:22;22.05;;;7.00;;
50267;SDS011;36153;50.960;6.220;2022-12-18T10:03:24;30.50;;;8.68;;
50267;SDS011;36153;50.960;6.220;2022-12-18T10:09:46;22.02;;;8.50;;
50267;SDS011;36153;50.960;6.220;2022-12-18T10:13:02;21.67;;;7.65;;
50267;SDS011;36153;50.960;6.220;2022-12-18T10:16:19;30.17;;;7.88;;
50267;SDS011;36153;50.960;6.220;2022-12-18T10:26:00;22.10;;;7.97;;
50267;SDS011;36153;50.960;6.220;2022-12-18T10:29:08;20.73;;;8.73;;
50267;SDS011;36153;50.960;6.220;2022-12-18T10:32:15;21.13;;;7.25;;
50267;SDS011;36153;50.960;6.220;2022-12-18T10:35:23;20.48;;;7.22;;
50267;SDS011;36153;50.960;6.220;2022-12-18T10:38:34;23.73;;;8.85;;
50267;SDS011;36153;50.960;6.220;2022-12-18T10:41:35;21.05;;;8.40;;
50267;SDS011;36153;50.960;6.220;2022-12-18T10:44:35;21.10;;;8.52;;
50267;SDS011;36153;50.960;6.220;2022-12-18T10:47:36;21.88;;;8.45;;
50267;SDS011;36153;50.960;6.220;2022-12-18T10:50:41;24.15;;;9.55;;
50267;SDS011;36153;50.960;6.220;2022-12-18T10:54:12;24.17;;;8.73;;
50267;SDS011;36153;50.960;6.220;2022-12-18T10:57:20;26.90;;;9.52;;
50267;SDS011;36153;50.960;6.220;2022-12-18T11:00:29;22.30;;;8.20;;
50267;SDS011;36153;50.960;6.220;2022-12-18T11:07:01;26.55;;;9.27;;
50267;SDS011;36153;50.960;6.220;2022-12-18T11:10:04;21.20;;;7.70;;
50267;SDS011;36153;50.960;6.220;2022-12-18T11:13:11;19.80;;;8.95;;
50267;SDS011;36153;50.960;6.220;2022-12-18T11:16:18;22.67;;;8.30;;
50267;SDS011;36153;50.960;6.220;2022-12-18T11:22:36;29.80;;;9.93;;
50267;SDS011;36153;50.960;6.220;2022-12-18T11:25:38;27.08;;;9.10;;
50267;SDS011;36153;50.960;6.220;2022-12-18T11:28:40;22.90;;;9.27;;
50267;SDS011;36153;50.960;6.220;2022-12-18T11:31:43;24.13;;;9.15;;
50267;SDS011;36153;50.960;6.220;2022-12-18T11:34:45;22.55;;;8.57;;
50267;SDS011;36153;50.960;6.220;2022-12-18T11:37:49;20.98;;;9.43;;
50267;SDS011;36153;50.960;6.220;2022-12-18T11:44:22;26.52;;;10.18;;
50267;SDS011;36153;50.960;6.220;2022-12-18T11:50:51;26.73;;;9.45;;
50267;SDS011;36153;50.960;6.220;2022-12-18T11:53:54;22.55;;;8.85;;
50267;SDS011;36153;50.960;6.220;2022-12-18T12:03:21;20.50;;;8.80;;
50267;SDS011;36153;50.960;6.220;2022-12-18T12:20:33;23.95;;;8.77;;
50267;SDS011;36153;50.960;6.220;2022-12-18T12:30:07;25.17;;;8.95;;
50267;SDS011;36153;50.960;6.220;2022-12-18T12:39:27;26.60;;;9.52;;
50267;SDS011;36153;50.960;6.220;2022-12-18T12:42:33;19.77;;;8.80;;
50267;SDS011;36153;50.960;6.220;2022-12-18T12:45:58;23.40;;;8.60;;
50267;SDS011;36153;50.960;6.220;2022-12-18T12:49:02;26.33;;;9.80;;
50267;SDS011;36153;50.960;6.220;2022-12-18T12:52:17;25.40;;;8.93;;
50267;SDS011;36153;50.960;6.220;2022-12-18T12:55:41;24.85;;;8.48;;
50267;SDS011;36153;50.960;6.220;2022-12-18T13:02:28;23.67;;;8.77;;
50267;SDS011;36153;50.960;6.220;2022-12-18T13:05:52;25.10;;;9.15;;
50267;SDS011;36153;50.960;6.220;2022-12-18T13:08:59;23.13;;;9.75;;
50267;SDS011;36153;50.960;6.220;2022-12-18T13:12:01;26.20;;;8.77;;
50267;SDS011;36153;50.960;6.220;2022-12-18T13:15:30;29.85;;;10.40;;
50267;SDS011;36153;50.960;6.220;2022-12-18T13:18:31;24.13;;;9.60;;
50267;SDS011;36153;50.960;6.220;2022-12-18T13:21:32;23.75;;;9.35;;
50267;SDS011;36153;50.960;6.220;2022-12-18T13:24:34;23.98;;;9.35;;
50267;SDS011;36153;50.960;6.220;2022-12-18T13:30:45;26.75;;;8.85;;
50267;SDS011;36153;50.960;6.220;2022-12-18T13:33:46;21.10;;;9.30;;
50267;SDS011;36153;50.960;6.220;2022-12-18T13:36:47;24.30;;;9.65;;
50267;SDS011;36153;50.960;6.220;2022-12-18T13:39:48;24.10;;;9.73;;
50267;SDS011;36153;50.960;6.220;2022-12-18T13:42:49;23.90;;;8.63;;
50267;SDS011;36153;50.960;6.220;2022-12-18T13:49:24;21.75;;;9.80;;
50267;SDS011;36153;50.960;6.220;2022-12-18T13:52:45;22.75;;;9.00;;
50267;SDS011;36153;50.960;6.220;2022-12-18T13:55:45;23.92;;;9.57;;
50267;SDS011;36153;50.960;6.220;2022-12-18T13:58:47;25.50;;;9.93;;
50267;SDS011;36153;50.960;6.220;2022-12-18T14:05:24;25.00;;;10.13;;
50267;SDS011;36153;50.960;6.220;2022-12-18T14:08:39;24.98;;;9.95;;
50267;SDS011;36153;50.960;6.220;2022-12-18T14:11:45;23.38;;;10.35;;
50267;SDS011;36153;50.960;6.220;2022-12-18T14:14:48;26.20;;;9.85;;
50267;SDS011;36153;50.960;6.220;2022-12-18T14:17:52;22.05;;;10.32;;
50267;SDS011;36153;50.960;6.220;2022-12-18T14:20:55;25.65;;;10.70;;
50267;SDS011;36153;50.960;6.220;2022-12-18T14:27:20;27.92;;;10.05;;
50267;SDS011;36153;50.960;6.220;2022-12-18T14:30:23;29.13;;;10.40;;
50267;SDS011;36153;50.960;6.220;2022-12-18T14:33:25;25.10;;;10.68;;
50267;SDS011;36153;50.960;6.220;2022-12-18T14:36:27;24.48;;;10.27;;
50267;SDS011;36153;50.960;6.220;2022-12-18T14:39:28;32.20;;;10.68;;
50267;SDS011;36153;50.960;6.220;2022-12-18T14:42:29;19.58;;;9.48;;
50267;SDS011;36153;50.960;6.220;2022-12-18T14:45:33;26.27;;;8.98;;
50267;SDS011;36153;50.960;6.220;2022-12-18T14:48:39;24.73;;;10.18;;
50267;SDS011;36153;50.960;6.220;2022-12-18T14:51:41;19.88;;;8.50;;
50267;SDS011;36153;50.960;6.220;2022-12-18T14:54:48;24.58;;;9.77;;
50267;SDS011;36153;50.960;6.220;2022-12-18T14:57:49;23.63;;;9.55;;
50267;SDS011;36153;50.960;6.220;2022-12-18T15:00:52;24.73;;;9.85;;
50267;SDS011;36153;50.960;6.220;2022-12-18T15:03:53;25.30;;;10.63;;
50267;SDS011;36153;50.960;6.220;2022-12-18T15:10:20;27.90;;;9.57;;
50267;SDS011;36153;50.960;6.220;2022-12-18T15:13:21;28.25;;;9.02;;
50267;SDS011;36153;50.960;6.220;2022-12-18T15:16:24;26.80;;;11.15;;
50267;SDS011;36153;50.960;6.220;2022-12-18T15:19:30;24.80;;;10.90;;
50267;SDS011;36153;50.960;6.220;2022-12-18T15:22:36;30.08;;;10.00;;
50267;SDS011;36153;50.960;6.220;2022-12-18T15:25:37;22.88;;;10.65;;
50267;SDS011;36153;50.960;6.220;2022-12-18T15:28:39;31.25;;;10.35;;
50267;SDS011;36153;50.960;6.220;2022-12-18T15:31:45;29.30;;;10.93;;
50267;SDS011;36153;50.960;6.220;2022-12-18T15:35:08;24.63;;;10.55;;
50267;SDS011;36153;50.960;6.220;2022-12-18T15:38:15;29.75;;;11.13;;
50267;SDS011;36153;50.960;6.220;2022-12-18T15:41:16;26.65;;;10.73;;
50267;SDS011;36153;50.960;6.220;2022-12-18T15:44:22;32.75;;;10.63;;
50267;SDS011;36153;50.960;6.220;2022-12-18T15:47:24;28.15;;;10.80;;
50267;SDS011;36153;50.960;6.220;2022-12-18T15:50:25;25.27;;;10.02;;
50267;SDS011;36153;50.960;6.220;2022-12-18T15:53:27;26.98;;;10.02;;
50267;SDS011;36153;50.960;6.220;2022-12-18T15:56:31;24.40;;;9.95;;
50267;SDS011;36153;50.960;6.220;2022-12-18T16:02:52;24.98;;;9.35;;
50267;SDS011;36153;50.960;6.220;2022-12-18T16:05:52;28.35;;;10.38;;
50267;SDS011;36153;50.960;6.220;2022-12-18T16:08:53;30.83;;;9.77;;
50267;SDS011;36153;50.960;6.220;2022-12-18T16:11:53;27.55;;;10.25;;
50267;SDS011;36153;50.960;6.220;2022-12-18T16:14:54;26.15;;;11.10;;
50267;SDS011;36153;50.960;6.220;2022-12-18T16:17:54;21.73;;;9.90;;
50267;SDS011;36153;50.960;6.220;2022-12-18T16:20:54;24.98;;;11.55;;
50267;SDS011;36153;50.960;6.220;2022-12-18T16:23:54;29.38;;;12.68;;
50267;SDS011;36153;50.960;6.220;2022-12-18T16:26:56;32.42;;;10.48;;
50267;SDS011;36153;50.960;6.220;2022-12-18T16:29:58;29.15;;;11.77;;
50267;SDS011;36153;50.960;6.220;2022-12-18T16:32:59;30.08;;;11.77;;
50267;SDS011;36153;50.960;6.220;2022-12-18T16:35:59;26.63;;;10.50;;
50267;SDS011;36153;50.960;6.220;2022-12-18T16:38:59;28.17;;;10.10;;
50267;SDS011;36153;50.960;6.220;2022-12-18T16:42:04;29.05;;;11.95;;
50267;SDS011;36153;50.960;6.220;2022-12-18T16:45:07;31.50;;;10.23;;
50267;SDS011;36153;50.960;6.220;2022-12-18T16:48:09;27.95;;;11.45;;
50267;SDS011;36153;50.960;6.220;2022-12-18T16:51:09;33.47;;;11.40;;
50267;SDS011;36153;50.960;6.220;2022-12-18T16:54:09;32.47;;;11.63;;
50267;SDS011;36153;50.960;6.220;2022-12-18T16:57:12;29.73;;;10.55;;
50267;SDS011;36153;50.960;6.220;2022-12-18T17:00:14;24.13;;;10.23;;
50267;SDS011;36153;50.960;6.220;2022-12-18T17:03:15;29.25;;;11.00;;
50267;SDS011;36153;50.960;6.220;2022-12-18T17:06:15;32.58;;;11.10;;
50267;SDS011;36153;50.960;6.220;2022-12-18T17:09:15;23.30;;;10.40;;
50267;SDS011;36153;50.960;6.220;2022-12-18T17:12:17;27.67;;;11.13;;
50267;SDS011;36153;50.960;6.220;2022-12-18T17:15:17;33.70;;;11.27;;
50267;SDS011;36153;50.960;6.220;2022-12-18T17:18:17;30.63;;;12.55;;
50267;SDS011;36153;50.960;6.220;2022-12-18T17:21:18;34.08;;;11.98;;
50267;SDS011;36153;50.960;6.220;2022-12-18T17:24:18;32.40;;;11.85;;
50267;SDS011;36153;50.960;6.220;2022-12-18T17:27:19;27.55;;;10.43;;
50267;SDS011;36153;50.960;6.220;2022-12-18T17:30:20;28.30;;;10.95;;
50267;SDS011;36153;50.960;6.220;2022-12-18T17:33:20;29.70;;;11.80;;
50267;SDS011;36153;50.960;6.220;2022-12-18T17:36:22;24.30;;;9.60;;
50267;SDS011;36153;50.960;6.220;2022-12-18T17:39:23;29.70;;;12.18;;
50267;SDS011;36153;50.960;6.220;2022-12-18T17:42:23;29.38;;;11.25;;
50267;SDS011;36153;50.960;6.220;2022-12-18T17:45:25;27.85;;;11.75;;
50267;SDS011;36153;50.960;6.220;2022-12-18T17:48:25;29.08;;;11.38;;
50267;SDS011;36153;50.960;6.220;2022-12-18T17:51:26;27.27;;;10.00;;
50267;SDS011;36153;50.960;6.220;2022-12-18T17:54:27;29.58;;;11.10;;
50267;SDS011;36153;50.960;6.220;2022-12-18T17:57:28;27.35;;;10.85;;
50267;SDS011;36153;50.960;6.220;2022-12-18T18:00:29;30.92;;;11.43;;
50267;SDS011;36153;50.960;6.220;2022-12-18T18:03:30;30.63;;;10.73;;
50267;SDS011;36153;50.960;6.220;2022-12-18T18:06:31;29.40;;;10.88;;
50267;SDS011;36153;50.960;6.220;2022-12-18T18:09:32;29.65;;;11.88;;
50267;SDS011;36153;50.960;6.220;2022-12-18T18:12:32;36.83;;;12.50;;
50267;SDS011;36153;50.960;6.220;2022-12-18T18:15:55;29.80;;;11.88;;
50267;SDS011;36153;50.960;6.220;2022-12-18T18:18:57;31.70;;;13.43;;
50267;SDS011;36153;50.960;6.220;2022-12-18T18:21:59;28.63;;;11.75;;
50267;SDS011;36153;50.960;6.220;2022-12-18T18:25:00;35.78;;;12.18;;
50267;SDS011;36153;50.960;6.220;2022-12-18T18:28:02;32.20;;;12.13;;
50267;SDS011;36153;50.960;6.220;2022-12-18T18:31:03;33.65;;;12.57;;
50267;SDS011;36153;50.960;6.220;2022-12-18T18:34:04;30.98;;;12.52;;
50267;SDS011;36153;50.960;6.220;2022-12-18T18:37:04;28.98;;;12.60;;
50267;SDS011;36153;50.960;6.220;2022-12-18T18:40:05;29.20;;;11.38;;
50267;SDS011;36153;50.960;6.220;2022-12-18T18:43:06;27.25;;;11.68;;
50267;SDS011;36153;50.960;6.220;2022-12-18T18:46:06;33.90;;;13.38;;
50267;SDS011;36153;50.960;6.220;2022-12-18T18:49:06;32.20;;;12.20;;
50267;SDS011;36153;50.960;6.220;2022-12-18T18:52:07;28.30;;;11.07;;
50267;SDS011;36153;50.960;6.220;2022-12-18T18:55:07;31.25;;;11.77;;
50267;SDS011;36153;50.960;6.220;2022-12-18T18:58:08;36.88;;;12.00;;
50267;SDS011;36153;50.960;6.220;2022-12-18T19:01:15;28.75;;;12.43;;
50267;SDS011;36153;50.960;6.220;2022-12-18T19:04:17;30.38;;;11.32;;
50267;SDS011;36153;50.960;6.220;2022-12-18T19:07:17;35.80;;;12.55;;
50267;SDS011;36153;50.960;6.220;2022-12-18T19:10:18;37.50;;;11.15;;
50267;SDS011;36153;50.960;6.220;2022-12-18T19:13:19;30.25;;;11.23;;
50267;SDS011;36153;50.960;6.220;2022-12-18T19:16:20;30.83;;;10.80;;
50267;SDS011;36153;50.960;6.220;2022-12-18T19:19:21;32.80;;;12.68;;
50267;SDS011;36153;50.960;6.220;2022-12-18T19:22:21;27.95;;;11.45;;
50267;SDS011;36153;50.960;6.220;2022-12-18T19:25:23;33.97;;;11.45;;
50267;SDS011;36153;50.960;6.220;2022-12-18T19:28:24;35.08;;;11.25;;
50267;SDS011;36153;50.960;6.220;2022-12-18T19:31:27;36.80;;;11.45;;
50267;SDS011;36153;50.960;6.220;2022-12-18T19:34:28;31.60;;;11.40;;
50267;SDS011;36153;50.960;6.220;2022-12-18T19:37:28;32.55;;;12.15;;
50267;SDS011;36153;50.960;6.220;2022-12-18T19:40:29;32.80;;;12.35;;
50267;SDS011;36153;50.960;6.220;2022-12-18T19:43:29;33.03;;;13.13;;
50267;SDS011;36153;50.960;6.220;2022-12-18T19:46:29;30.65;;;12.43;;
50267;SDS011;36153;50.960;6.220;2022-12-18T19:49:30;34.67;;;11.45;;